San Juan Bautista, California
Current Conditions -  °F | °C
As of 2:50 AM on Sunday 23 Nov 2014 (Local Time) from KCVH Reporting Station
Overcast Overcast  
Wind Chill: 43°   Ceiling: 200
Heat Index: 43°   Visibility: 0.25mi
Dew Point: 43°   Wind: 0mph
Humidity: 100%   Direction: NA
Pressure: 30.24"   Gusts: NA
Location:  36.85°N, 121.54°W
Report Text: KCVH 231050Z AUTO 00000KT 1/4SM VV002 06/06 A3024 RMK AO1
Loading
Personal Weather Stations






























Interactive Weather Map New forecast layout! Learn more

10-Day Weather Forecast

Advertisements
Track Severe Weather on mobile